Valgardena — ICKG — position and weather

sailwx.info

Track history (hours):
 
Tides and Currents Weather Stations Pressure Air Temp Water Temp Dewpoint Dewpoint Depression Visibility Wind Speed Wind Dir Waves Ship Positions

Valgardena

Last reported at 2017-Feb-27 06:31 UTC. Time now 2017-Feb-27 06:59 UTC.
Position N 36°08' W 005°24'.

Length 184 m; draft 9.4 m.

Type: Ship (hazmat cat B). MMSI: 247243800.

Date/timePositionNaut miles runAvg speedWind from/ knotsBaromVisibWave heightAir tempDewpointWater temp
2017-Feb-27 06:31N 36°08' W 005°24'0 0.0
2017-Feb-27 05:31N 36°08' W 005°24'0 0.0
2017-Feb-27 04:31N 36°08' W 005°24'0 0.1
2017-Feb-27 03:31N 36°08' W 005°24'0 0.1
2017-Feb-27 02:28N 36°08' W 005°24'0 0.1
2017-Feb-27 01:31N 36°08' W 005°25'0 0.0
2017-Feb-27 00:31N 36°08' W 005°24'0 0.0
2017-Feb-26 23:31N 36°08' W 005°24'0 0.2
2017-Feb-26 22:31N 36°07' W 005°24'0 0.0
2017-Feb-26 21:25N 36°07' W 005°24'0 0.0
2017-Feb-26 20:31N 36°07' W 005°24'0 0.0
2017-Feb-26 19:31N 36°07' W 005°24'0 0.0
2017-Feb-26 18:31N 36°07' W 005°24'0 0.0
2017-Feb-26 17:31N 36°07' W 005°24'0 0.0
2017-Feb-26 16:31N 36°07' W 005°24'0 0.0
2017-Feb-26 15:31N 36°08' W 005°24'0 0.1
2017-Feb-26 14:28N 36°08' W 005°24'0 0.1
2017-Feb-26 13:31N 36°08' W 005°24'0 0.1
2017-Feb-26 12:31N 36°08' W 005°25'0 0.0
2017-Feb-26 11:31N 36°08' W 005°25'0 0.1
2017-Feb-26 10:31N 36°08' W 005°24'0 0.1
2017-Feb-26 09:31N 36°08' W 005°25'0 0.1
2017-Feb-26 08:31N 36°08' W 005°24'0 0.1
2017-Feb-26 07:31N 36°08' W 005°24'0 0.1
2017-Feb-26 06:31N 36°07' W 005°24'0 0.0
2017-Feb-26 05:31N 36°07' W 005°24'0 0.0
2017-Feb-26 04:31N 36°07' W 005°24'0 0.0
2017-Feb-26 03:31N 36°07' W 005°24'0 0.0
2017-Feb-26 02:31N 36°07' W 005°24'0 0.1
2017-Feb-26 01:31N 36°08' W 005°24'0 0.0
2017-Feb-26 00:31N 36°08' W 005°24'0 0.1
2017-Feb-25 23:31N 36°08' W 005°24'0 0.0
2017-Feb-25 22:28N 36°08' W 005°24'0 0.1
2017-Feb-25 21:31N 36°08' W 005°24'0 0.1
2017-Feb-25 20:31N 36°07' W 005°24'0 0.0
2017-Feb-25 19:31N 36°07' W 005°24'0 0.0
2017-Feb-25 18:31N 36°07' W 005°24'0 0.0
2017-Feb-25 17:31N 36°07' W 005°24'0 0.1
2017-Feb-25 16:28N 36°08' W 005°24'0 0.1
2017-Feb-25 15:31N 36°07' W 005°24'0 0.0
2017-Feb-25 14:31N 36°07' W 005°24'0 0.0
2017-Feb-25 13:31N 36°07' W 005°24'0 0.0
2017-Feb-25 12:31N 36°08' W 005°24'0 0.0
2017-Feb-25 11:31N 36°08' W 005°24'0 0.0
2017-Feb-25 10:31N 36°08' W 005°24'0 0.0
2017-Feb-25 09:31N 36°08' W 005°24'0 0.0
2017-Feb-25 08:31N 36°08' W 005°24'0 0.1
2017-Feb-25 07:31N 36°08' W 005°24'0 0.1
2017-Feb-25 06:31N 36°08' W 005°24'0 0.1
2017-Feb-25 05:31N 36°08' W 005°24'0 0.0
2017-Feb-25 04:31N 36°07' W 005°24'0 0.0
2017-Feb-25 03:31N 36°07' W 005°24'0 0.0
2017-Feb-25 02:31N 36°07' W 005°25'0 0.0
2017-Feb-25 01:31N 36°07' W 005°25'0 0.0
2017-Feb-25 00:31N 36°07' W 005°24'0 0.1
2017-Feb-24 23:31N 36°08' W 005°24'0 0.1
2017-Feb-24 22:31N 36°08' W 005°24'0 0.0
2017-Feb-24 21:31N 36°08' W 005°24'0 0.1
2017-Feb-24 20:31N 36°08' W 005°24'0 0.1
2017-Feb-24 19:31N 36°08' W 005°24'0 0.0
2017-Feb-24 18:31N 36°08' W 005°24'0 0.0
2017-Feb-24 17:31N 36°08' W 005°24'3 2.9
2017-Feb-24 16:33N 36°05' W 005°23'9 9.0
2017-Feb-24 15:33N 36°04' W 005°12'3 2.5
2017-Feb-24 14:29N 36°04' W 005°09'1 1.4
2017-Feb-24 13:33N 36°04' W 005°10'2 1.9
2017-Feb-24 12:32N 36°04' W 005°08'1 0.7
2017-Feb-24 11:22N 36°04' W 005°07'1 1.1
2017-Feb-24 10:18N 36°04' W 005°09'1 0.9
2017-Feb-24 09:27N 36°04' W 005°10'1 1.2
2017-Feb-24 08:33N 36°05' W 005°11'1 1.4
2017-Feb-24 07:33N 36°05' W 005°13'2 2.0
2017-Feb-24 06:33N 36°05' W 005°15'2 2.3
2017-Feb-24 05:33N 36°04' W 005°18'1 0.6
2017-Feb-24 04:33N 36°03' W 005°18'0 0.3
2017-Feb-24 03:33N 36°03' W 005°18'0 0.3
2017-Feb-24 02:33N 36°03' W 005°18'2 1.8
2017-Feb-24 01:33N 36°04' W 005°16'1110.4
2017-Feb-24 00:33N 36°05' W 005°03'35513.1
2017-Feb-22 21:32N 36°58' E 002°13'1313.0
2017-Feb-22 20:33N 36°60' E 002°29'1313.6
2017-Feb-22 19:33N 37°01' E 002°46'1414.3
2017-Feb-22 18:33N 37°04' E 003°04'1414.5
2017-Feb-22 17:33N 37°05' E 003°22'1414.4
2017-Feb-22 16:33N 37°07' E 003°40'1313.3
2017-Feb-22 15:33N 37°09' E 003°56'1813.0
2017-Feb-22 14:11N 37°12' E 004°18'44612.5
2017-Feb-21 02:28N 37°01' E 013°38'1213.1
2017-Feb-21 01:33N 36°56' E 013°51'1313.2
2017-Feb-21 00:33N 36°50' E 014°06'1312.9
2017-Feb-20 23:33N 36°44' E 014°20'1312.6
2017-Feb-20 22:33N 36°40' E 014°35'1313.2
2017-Feb-20 21:33N 36°36' E 014°50'7511.8
2017-Feb-20 15:12N 37°31' E 015°55'812.8
2017-Feb-20 14:33N 37°38' E 015°59'  
2017-Feb-18 00:28N 40°28' E 017°12'0 0.0
2017-Feb-17 23:31N 40°28' E 017°12'0 0.0
2017-Feb-17 22:31N 40°28' E 017°12'0 0.0
2017-Feb-17 21:31N 40°28' E 017°12'0 0.0
2017-Feb-17 20:31N 40°28' E 017°12'0 0.0
2017-Feb-17 19:31N 40°28' E 017°12'0 0.0
2017-Feb-17 18:31N 40°28' E 017°12'0 0.0
2017-Feb-17 17:31N 40°28' E 017°12'0 0.0
2017-Feb-17 16:31N 40°28' E 017°12'0 0.0
2017-Feb-17 15:31N 40°28' E 017°12'  
Track history (hours):
 
Tides and Currents Weather Stations Pressure Air Temp Water Temp Dewpoint Dewpoint Depression Visibility Wind Speed Wind Dir Waves Ship Positions

Valgardena

Last reported at 2017-Feb-27 06:31 UTC. Time now 2017-Feb-27 06:59 UTC.
Position N 36°08' W 005°24'.

Length 184 m; draft 9.4 m.

Type: Ship (hazmat cat B). MMSI: 247243800.

Date/timePositionNaut miles runAvg speedWind from/ knotsBaromVisibWave heightAir tempDewpointWater temp
2017-Feb-27 06:31N 36°08' W 005°24'0 0.0
2017-Feb-27 05:31N 36°08' W 005°24'0 0.0
2017-Feb-27 04:31N 36°08' W 005°24'0 0.1
2017-Feb-27 03:31N 36°08' W 005°24'0 0.1
2017-Feb-27 02:28N 36°08' W 005°24'0 0.1
2017-Feb-27 01:31N 36°08' W 005°25'0 0.0
2017-Feb-27 00:31N 36°08' W 005°24'0 0.0
2017-Feb-26 23:31N 36°08' W 005°24'0 0.2
2017-Feb-26 22:31N 36°07' W 005°24'0 0.0
2017-Feb-26 21:25N 36°07' W 005°24'0 0.0
2017-Feb-26 20:31N 36°07' W 005°24'0 0.0
2017-Feb-26 19:31N 36°07' W 005°24'0 0.0
2017-Feb-26 18:31N 36°07' W 005°24'0 0.0
2017-Feb-26 17:31N 36°07' W 005°24'0 0.0
2017-Feb-26 16:31N 36°07' W 005°24'0 0.0
2017-Feb-26 15:31N 36°08' W 005°24'0 0.1
2017-Feb-26 14:28N 36°08' W 005°24'0 0.1
2017-Feb-26 13:31N 36°08' W 005°24'0 0.1
2017-Feb-26 12:31N 36°08' W 005°25'0 0.0
2017-Feb-26 11:31N 36°08' W 005°25'0 0.1
2017-Feb-26 10:31N 36°08' W 005°24'0 0.1
2017-Feb-26 09:31N 36°08' W 005°25'0 0.1
2017-Feb-26 08:31N 36°08' W 005°24'0 0.1
2017-Feb-26 07:31N 36°08' W 005°24'0 0.1
2017-Feb-26 06:31N 36°07' W 005°24'0 0.0
2017-Feb-26 05:31N 36°07' W 005°24'0 0.0
2017-Feb-26 04:31N 36°07' W 005°24'0 0.0
2017-Feb-26 03:31N 36°07' W 005°24'0 0.0
2017-Feb-26 02:31N 36°07' W 005°24'0 0.1
2017-Feb-26 01:31N 36°08' W 005°24'0 0.0
2017-Feb-26 00:31N 36°08' W 005°24'0 0.1
2017-Feb-25 23:31N 36°08' W 005°24'0 0.0
2017-Feb-25 22:28N 36°08' W 005°24'0 0.1
2017-Feb-25 21:31N 36°08' W 005°24'0 0.1
2017-Feb-25 20:31N 36°07' W 005°24'0 0.0
2017-Feb-25 19:31N 36°07' W 005°24'0 0.0
2017-Feb-25 18:31N 36°07' W 005°24'0 0.0
2017-Feb-25 17:31N 36°07' W 005°24'0 0.1
2017-Feb-25 16:28N 36°08' W 005°24'0 0.1
2017-Feb-25 15:31N 36°07' W 005°24'0 0.0
2017-Feb-25 14:31N 36°07' W 005°24'0 0.0
2017-Feb-25 13:31N 36°07' W 005°24'0 0.0
2017-Feb-25 12:31N 36°08' W 005°24'0 0.0
2017-Feb-25 11:31N 36°08' W 005°24'0 0.0
2017-Feb-25 10:31N 36°08' W 005°24'0 0.0
2017-Feb-25 09:31N 36°08' W 005°24'0 0.0
2017-Feb-25 08:31N 36°08' W 005°24'0 0.1
2017-Feb-25 07:31N 36°08' W 005°24'0 0.1
2017-Feb-25 06:31N 36°08' W 005°24'0 0.1
2017-Feb-25 05:31N 36°08' W 005°24'0 0.0
2017-Feb-25 04:31N 36°07' W 005°24'0 0.0
2017-Feb-25 03:31N 36°07' W 005°24'0 0.0
2017-Feb-25 02:31N 36°07' W 005°25'0 0.0
2017-Feb-25 01:31N 36°07' W 005°25'0 0.0
2017-Feb-25 00:31N 36°07' W 005°24'0 0.1
2017-Feb-24 23:31N 36°08' W 005°24'0 0.1
2017-Feb-24 22:31N 36°08' W 005°24'0 0.0
2017-Feb-24 21:31N 36°08' W 005°24'0 0.1
2017-Feb-24 20:31N 36°08' W 005°24'0 0.1
2017-Feb-24 19:31N 36°08' W 005°24'0 0.0
2017-Feb-24 18:31N 36°08' W 005°24'0 0.0
2017-Feb-24 17:31N 36°08' W 005°24'3 2.9
2017-Feb-24 16:33N 36°05' W 005°23'9 9.0
2017-Feb-24 15:33N 36°04' W 005°12'3 2.5
2017-Feb-24 14:29N 36°04' W 005°09'1 1.4
2017-Feb-24 13:33N 36°04' W 005°10'2 1.9
2017-Feb-24 12:32N 36°04' W 005°08'1 0.7
2017-Feb-24 11:22N 36°04' W 005°07'1 1.1
2017-Feb-24 10:18N 36°04' W 005°09'1 0.9
2017-Feb-24 09:27N 36°04' W 005°10'1 1.2
2017-Feb-24 08:33N 36°05' W 005°11'1 1.4
2017-Feb-24 07:33N 36°05' W 005°13'2 2.0
2017-Feb-24 06:33N 36°05' W 005°15'2 2.3
2017-Feb-24 05:33N 36°04' W 005°18'1 0.6
2017-Feb-24 04:33N 36°03' W 005°18'0 0.3
2017-Feb-24 03:33N 36°03' W 005°18'0 0.3
2017-Feb-24 02:33N 36°03' W 005°18'2 1.8
2017-Feb-24 01:33N 36°04' W 005°16'1110.4
2017-Feb-24 00:33N 36°05' W 005°03'35513.1
2017-Feb-22 21:32N 36°58' E 002°13'1313.0
2017-Feb-22 20:33N 36°60' E 002°29'1313.6
2017-Feb-22 19:33N 37°01' E 002°46'1414.3
2017-Feb-22 18:33N 37°04' E 003°04'1414.5
2017-Feb-22 17:33N 37°05' E 003°22'1414.4
2017-Feb-22 16:33N 37°07' E 003°40'1313.3
2017-Feb-22 15:33N 37°09' E 003°56'1813.0
2017-Feb-22 14:11N 37°12' E 004°18'44612.5
2017-Feb-21 02:28N 37°01' E 013°38'1213.1
2017-Feb-21 01:33N 36°56' E 013°51'1313.2
2017-Feb-21 00:33N 36°50' E 014°06'1312.9
2017-Feb-20 23:33N 36°44' E 014°20'1312.6
2017-Feb-20 22:33N 36°40' E 014°35'1313.2
2017-Feb-20 21:33N 36°36' E 014°50'7511.8
2017-Feb-20 15:12N 37°31' E 015°55'812.8
2017-Feb-20 14:33N 37°38' E 015°59'  
2017-Feb-18 00:28N 40°28' E 017°12'0 0.0
2017-Feb-17 23:31N 40°28' E 017°12'0 0.0
2017-Feb-17 22:31N 40°28' E 017°12'0 0.0
2017-Feb-17 21:31N 40°28' E 017°12'0 0.0
2017-Feb-17 20:31N 40°28' E 017°12'0 0.0
2017-Feb-17 19:31N 40°28' E 017°12'0 0.0
2017-Feb-17 18:31N 40°28' E 017°12'0 0.0
2017-Feb-17 17:31N 40°28' E 017°12'0 0.0
2017-Feb-17 16:31N 40°28' E 017°12'0 0.0
2017-Feb-17 15:31N 40°28' E 017°12'  

Dump ship's entire track history